sensor_id;sensor_type;location;lat;lon;timestamp;P1;durP1;ratioP1;P2;durP2;ratioP2
60257;SDS011;46115;44.484;11.314;2023-03-01T00:02:57;26.50;;;16.85;;
60257;SDS011;46115;44.484;11.314;2023-03-01T00:11:04;27.80;;;16.63;;
60257;SDS011;46115;44.484;11.314;2023-03-01T00:15:08;25.13;;;16.80;;
60257;SDS011;46115;44.484;11.314;2023-03-01T00:23:13;25.80;;;16.23;;
60257;SDS011;46115;44.484;11.314;2023-03-01T00:27:17;25.60;;;16.17;;
60257;SDS011;46115;44.484;11.314;2023-03-01T00:31:20;24.70;;;15.90;;
60257;SDS011;46115;44.484;11.314;2023-03-01T00:35:24;25.35;;;16.38;;
60257;SDS011;46115;44.484;11.314;2023-03-01T00:39:26;25.10;;;16.02;;
60257;SDS011;46115;44.484;11.314;2023-03-01T00:43:31;24.27;;;15.98;;
60257;SDS011;46115;44.484;11.314;2023-03-01T00:47:37;26.25;;;16.02;;
60257;SDS011;46115;44.484;11.314;2023-03-01T00:51:39;24.90;;;16.05;;
60257;SDS011;46115;44.484;11.314;2023-03-01T00:55:42;22.08;;;15.35;;
60257;SDS011;46115;44.484;11.314;2023-03-01T00:59:46;22.83;;;15.40;;
60257;SDS011;46115;44.484;11.314;2023-03-01T01:03:49;25.67;;;15.18;;
60257;SDS011;46115;44.484;11.314;2023-03-01T01:07:52;24.75;;;15.30;;
60257;SDS011;46115;44.484;11.314;2023-03-01T01:11:54;26.30;;;15.63;;
60257;SDS011;46115;44.484;11.314;2023-03-01T01:20:04;23.70;;;16.35;;
60257;SDS011;46115;44.484;11.314;2023-03-01T01:24:07;25.10;;;15.60;;
60257;SDS011;46115;44.484;11.314;2023-03-01T01:28:09;25.83;;;16.38;;
60257;SDS011;46115;44.484;11.314;2023-03-01T01:32:13;24.30;;;15.75;;
60257;SDS011;46115;44.484;11.314;2023-03-01T01:36:15;26.60;;;15.68;;
60257;SDS011;46115;44.484;11.314;2023-03-01T01:40:18;24.20;;;15.88;;
60257;SDS011;46115;44.484;11.314;2023-03-01T01:48:26;23.27;;;14.73;;
60257;SDS011;46115;44.484;11.314;2023-03-01T01:52:40;22.98;;;14.75;;
60257;SDS011;46115;44.484;11.314;2023-03-01T02:00:49;22.73;;;15.00;;
60257;SDS011;46115;44.484;11.314;2023-03-01T02:04:55;24.13;;;15.57;;
60257;SDS011;46115;44.484;11.314;2023-03-01T02:09:06;27.23;;;16.33;;
60257;SDS011;46115;44.484;11.314;2023-03-01T02:13:12;26.80;;;16.20;;
60257;SDS011;46115;44.484;11.314;2023-03-01T02:17:15;24.05;;;16.13;;
60257;SDS011;46115;44.484;11.314;2023-03-01T02:21:29;25.13;;;16.27;;
60257;SDS011;46115;44.484;11.314;2023-03-01T02:25:40;23.48;;;16.17;;
60257;SDS011;46115;44.484;11.314;2023-03-01T02:29:50;24.65;;;15.98;;
60257;SDS011;46115;44.484;11.314;2023-03-01T02:33:52;23.83;;;15.70;;
60257;SDS011;46115;44.484;11.314;2023-03-01T02:37:55;21.75;;;15.38;;
60257;SDS011;46115;44.484;11.314;2023-03-01T02:42:01;22.63;;;16.20;;
60257;SDS011;46115;44.484;11.314;2023-03-01T02:46:07;26.20;;;15.95;;
60257;SDS011;46115;44.484;11.314;2023-03-01T02:50:12;22.92;;;15.45;;
60257;SDS011;46115;44.484;11.314;2023-03-01T02:54:25;26.98;;;16.08;;
60257;SDS011;46115;44.484;11.314;2023-03-01T02:58:31;22.45;;;15.27;;
60257;SDS011;46115;44.484;11.314;2023-03-01T03:02:42;22.38;;;15.50;;
60257;SDS011;46115;44.484;11.314;2023-03-01T03:06:52;23.35;;;15.18;;
60257;SDS011;46115;44.484;11.314;2023-03-01T03:14:56;23.95;;;15.25;;
60257;SDS011;46115;44.484;11.314;2023-03-01T03:23:05;22.55;;;14.90;;
60257;SDS011;46115;44.484;11.314;2023-03-01T03:27:08;24.30;;;15.32;;
60257;SDS011;46115;44.484;11.314;2023-03-01T03:31:10;23.90;;;16.33;;
60257;SDS011;46115;44.484;11.314;2023-03-01T03:35:14;24.85;;;16.40;;
60257;SDS011;46115;44.484;11.314;2023-03-01T03:39:16;24.27;;;16.23;;
60257;SDS011;46115;44.484;11.314;2023-03-01T03:43:19;24.73;;;16.60;;
60257;SDS011;46115;44.484;11.314;2023-03-01T03:47:22;23.45;;;16.38;;
60257;SDS011;46115;44.484;11.314;2023-03-01T03:51:26;25.55;;;17.40;;
60257;SDS011;46115;44.484;11.314;2023-03-01T03:55:28;23.58;;;16.75;;
60257;SDS011;46115;44.484;11.314;2023-03-01T03:59:31;25.13;;;16.55;;
60257;SDS011;46115;44.484;11.314;2023-03-01T04:11:40;26.05;;;15.40;;
60257;SDS011;46115;44.484;11.314;2023-03-01T04:15:42;24.38;;;16.55;;
60257;SDS011;46115;44.484;11.314;2023-03-01T04:19:45;25.15;;;16.00;;
60257;SDS011;46115;44.484;11.314;2023-03-01T04:23:50;27.42;;;16.52;;
60257;SDS011;46115;44.484;11.314;2023-03-01T04:27:54;24.83;;;15.48;;
60257;SDS011;46115;44.484;11.314;2023-03-01T04:31:56;26.27;;;16.02;;
60257;SDS011;46115;44.484;11.314;2023-03-01T04:35:58;24.70;;;16.00;;
60257;SDS011;46115;44.484;11.314;2023-03-01T04:40:02;23.48;;;16.17;;
60257;SDS011;46115;44.484;11.314;2023-03-01T04:44:13;28.65;;;16.83;;
60257;SDS011;46115;44.484;11.314;2023-03-01T04:48:15;24.05;;;16.63;;
60257;SDS011;46115;44.484;11.314;2023-03-01T04:52:18;25.35;;;16.15;;
60257;SDS011;46115;44.484;11.314;2023-03-01T04:56:21;24.70;;;15.73;;
60257;SDS011;46115;44.484;11.314;2023-03-01T05:00:24;27.63;;;16.52;;
60257;SDS011;46115;44.484;11.314;2023-03-01T05:08:28;28.05;;;16.02;;
60257;SDS011;46115;44.484;11.314;2023-03-01T05:12:36;25.95;;;16.67;;
60257;SDS011;46115;44.484;11.314;2023-03-01T05:16:39;24.58;;;16.77;;
60257;SDS011;46115;44.484;11.314;2023-03-01T05:20:41;26.58;;;17.45;;
60257;SDS011;46115;44.484;11.314;2023-03-01T05:24:43;25.10;;;16.75;;
60257;SDS011;46115;44.484;11.314;2023-03-01T05:32:50;26.20;;;16.48;;
60257;SDS011;46115;44.484;11.314;2023-03-01T05:36:56;26.85;;;17.60;;
60257;SDS011;46115;44.484;11.314;2023-03-01T05:40:58;30.60;;;18.13;;
60257;SDS011;46115;44.484;11.314;2023-03-01T05:49:04;28.45;;;17.60;;
60257;SDS011;46115;44.484;11.314;2023-03-01T05:53:08;26.42;;;17.60;;
60257;SDS011;46115;44.484;11.314;2023-03-01T05:57:12;26.55;;;17.65;;
60257;SDS011;46115;44.484;11.314;2023-03-01T06:01:16;27.00;;;18.00;;
60257;SDS011;46115;44.484;11.314;2023-03-01T06:05:19;27.05;;;18.45;;
60257;SDS011;46115;44.484;11.314;2023-03-01T06:09:21;35.22;;;20.23;;
60257;SDS011;46115;44.484;11.314;2023-03-01T06:13:23;29.30;;;19.20;;
60257;SDS011;46115;44.484;11.314;2023-03-01T06:17:28;30.02;;;19.17;;
60257;SDS011;46115;44.484;11.314;2023-03-01T06:21:32;32.15;;;20.80;;
60257;SDS011;46115;44.484;11.314;2023-03-01T06:25:34;32.40;;;19.27;;
60257;SDS011;46115;44.484;11.314;2023-03-01T06:33:40;29.57;;;19.47;;
60257;SDS011;46115;44.484;11.314;2023-03-01T06:37:42;32.25;;;19.95;;
60257;SDS011;46115;44.484;11.314;2023-03-01T06:45:46;33.17;;;19.73;;
60257;SDS011;46115;44.484;11.314;2023-03-01T06:49:50;28.75;;;19.10;;
60257;SDS011;46115;44.484;11.314;2023-03-01T06:53:52;31.90;;;19.38;;
60257;SDS011;46115;44.484;11.314;2023-03-01T06:57:55;30.20;;;19.15;;
60257;SDS011;46115;44.484;11.314;2023-03-01T07:01:57;30.80;;;19.30;;
60257;SDS011;46115;44.484;11.314;2023-03-01T07:10:03;30.75;;;19.85;;
60257;SDS011;46115;44.484;11.314;2023-03-01T07:14:07;27.95;;;18.33;;
60257;SDS011;46115;44.484;11.314;2023-03-01T07:22:12;32.23;;;20.13;;
60257;SDS011;46115;44.484;11.314;2023-03-01T07:26:15;31.90;;;21.02;;
60257;SDS011;46115;44.484;11.314;2023-03-01T07:34:19;33.63;;;21.45;;
60257;SDS011;46115;44.484;11.314;2023-03-01T07:42:25;37.38;;;22.52;;
60257;SDS011;46115;44.484;11.314;2023-03-01T07:46:27;40.05;;;24.70;;
60257;SDS011;46115;44.484;11.314;2023-03-01T07:54:33;37.50;;;24.30;;
60257;SDS011;46115;44.484;11.314;2023-03-01T07:58:35;39.33;;;23.67;;
60257;SDS011;46115;44.484;11.314;2023-03-01T08:02:39;34.05;;;22.27;;
60257;SDS011;46115;44.484;11.314;2023-03-01T08:06:42;35.83;;;23.10;;
60257;SDS011;46115;44.484;11.314;2023-03-01T08:14:48;34.95;;;22.40;;
60257;SDS011;46115;44.484;11.314;2023-03-01T08:18:50;34.80;;;23.27;;
60257;SDS011;46115;44.484;11.314;2023-03-01T08:22:53;32.10;;;21.63;;
60257;SDS011;46115;44.484;11.314;2023-03-01T08:26:57;32.08;;;20.98;;
60257;SDS011;46115;44.484;11.314;2023-03-01T08:30:59;33.33;;;21.27;;
60257;SDS011;46115;44.484;11.314;2023-03-01T08:35:02;33.90;;;22.77;;
60257;SDS011;46115;44.484;11.314;2023-03-01T08:39:04;34.05;;;22.70;;
60257;SDS011;46115;44.484;11.314;2023-03-01T08:43:09;34.97;;;21.77;;
60257;SDS011;46115;44.484;11.314;2023-03-01T08:47:11;34.97;;;23.02;;
60257;SDS011;46115;44.484;11.314;2023-03-01T08:55:17;33.47;;;21.80;;
60257;SDS011;46115;44.484;11.314;2023-03-01T08:59:21;30.83;;;20.45;;
60257;SDS011;46115;44.484;11.314;2023-03-01T09:03:23;33.80;;;21.60;;
60257;SDS011;46115;44.484;11.314;2023-03-01T09:07:26;30.60;;;21.08;;
60257;SDS011;46115;44.484;11.314;2023-03-01T09:11:29;29.92;;;19.45;;
60257;SDS011;46115;44.484;11.314;2023-03-01T09:15:33;32.17;;;20.80;;
60257;SDS011;46115;44.484;11.314;2023-03-01T09:19:35;31.05;;;20.17;;
60257;SDS011;46115;44.484;11.314;2023-03-01T09:31:44;32.63;;;19.95;;
60257;SDS011;46115;44.484;11.314;2023-03-01T09:35:46;27.52;;;18.13;;
60257;SDS011;46115;44.484;11.314;2023-03-01T09:39:48;27.98;;;18.23;;
60257;SDS011;46115;44.484;11.314;2023-03-01T09:47:56;28.25;;;17.38;;
60257;SDS011;46115;44.484;11.314;2023-03-01T09:51:59;26.27;;;17.17;;
60257;SDS011;46115;44.484;11.314;2023-03-01T09:56:11;25.90;;;16.33;;
60257;SDS011;46115;44.484;11.314;2023-03-01T10:00:22;25.33;;;15.93;;
60257;SDS011;46115;44.484;11.314;2023-03-01T10:04:39;28.13;;;17.17;;
60257;SDS011;46115;44.484;11.314;2023-03-01T10:08:47;28.27;;;15.98;;
60257;SDS011;46115;44.484;11.314;2023-03-01T10:12:56;25.95;;;16.38;;
60257;SDS011;46115;44.484;11.314;2023-03-01T10:17:00;26.10;;;16.35;;
60257;SDS011;46115;44.484;11.314;2023-03-01T10:21:09;24.08;;;16.02;;
60257;SDS011;46115;44.484;11.314;2023-03-01T10:25:17;25.08;;;16.58;;
60257;SDS011;46115;44.484;11.314;2023-03-01T10:29:30;25.85;;;16.95;;
60257;SDS011;46115;44.484;11.314;2023-03-01T10:33:37;26.20;;;15.48;;
60257;SDS011;46115;44.484;11.314;2023-03-01T10:37:46;23.48;;;15.32;;
60257;SDS011;46115;44.484;11.314;2023-03-01T10:41:59;21.20;;;14.82;;
60257;SDS011;46115;44.484;11.314;2023-03-01T10:46:04;23.75;;;14.20;;
60257;SDS011;46115;44.484;11.314;2023-03-01T10:50:24;24.15;;;14.40;;
60257;SDS011;46115;44.484;11.314;2023-03-01T10:54:29;21.70;;;14.05;;
60257;SDS011;46115;44.484;11.314;2023-03-01T10:58:33;21.15;;;14.10;;
60257;SDS011;46115;44.484;11.314;2023-03-01T11:02:36;23.90;;;14.32;;
60257;SDS011;46115;44.484;11.314;2023-03-01T11:06:39;22.80;;;13.68;;
60257;SDS011;46115;44.484;11.314;2023-03-01T11:10:44;23.58;;;14.77;;
60257;SDS011;46115;44.484;11.314;2023-03-01T11:14:46;23.60;;;14.38;;
60257;SDS011;46115;44.484;11.314;2023-03-01T11:18:55;20.88;;;13.55;;
60257;SDS011;46115;44.484;11.314;2023-03-01T11:22:59;20.25;;;13.82;;
60257;SDS011;46115;44.484;11.314;2023-03-01T11:27:08;21.10;;;14.30;;
60257;SDS011;46115;44.484;11.314;2023-03-01T11:31:17;21.23;;;14.55;;
60257;SDS011;46115;44.484;11.314;2023-03-01T11:35:22;22.00;;;15.25;;
60257;SDS011;46115;44.484;11.314;2023-03-01T11:39:27;21.80;;;14.07;;
60257;SDS011;46115;44.484;11.314;2023-03-01T11:43:37;18.05;;;13.02;;
60257;SDS011;46115;44.484;11.314;2023-03-01T11:47:55;19.92;;;12.63;;
60257;SDS011;46115;44.484;11.314;2023-03-01T11:52:08;20.70;;;13.50;;
60257;SDS011;46115;44.484;11.314;2023-03-01T11:56:21;21.00;;;13.63;;
60257;SDS011;46115;44.484;11.314;2023-03-01T12:00:36;20.27;;;13.50;;
60257;SDS011;46115;44.484;11.314;2023-03-01T12:09:31;20.25;;;13.48;;
60257;SDS011;46115;44.484;11.314;2023-03-01T12:13:52;22.30;;;14.20;;
60257;SDS011;46115;44.484;11.314;2023-03-01T12:18:11;23.73;;;14.98;;
60257;SDS011;46115;44.484;11.314;2023-03-01T12:22:28;23.13;;;14.52;;
60257;SDS011;46115;44.484;11.314;2023-03-01T12:26:32;23.38;;;14.45;;
60257;SDS011;46115;44.484;11.314;2023-03-01T12:30:40;20.10;;;13.95;;
60257;SDS011;46115;44.484;11.314;2023-03-01T12:34:58;21.80;;;14.40;;
60257;SDS011;46115;44.484;11.314;2023-03-01T12:39:17;23.15;;;14.60;;
60257;SDS011;46115;44.484;11.314;2023-03-01T12:43:36;23.40;;;14.95;;
60257;SDS011;46115;44.484;11.314;2023-03-01T12:47:52;23.98;;;15.48;;
60257;SDS011;46115;44.484;11.314;2023-03-01T12:52:09;21.02;;;14.52;;
60257;SDS011;46115;44.484;11.314;2023-03-01T12:56:15;21.02;;;13.85;;
60257;SDS011;46115;44.484;11.314;2023-03-01T13:00:23;17.60;;;12.30;;
60257;SDS011;46115;44.484;11.314;2023-03-01T13:04:35;18.25;;;12.32;;
60257;SDS011;46115;44.484;11.314;2023-03-01T13:08:58;17.05;;;12.55;;
60257;SDS011;46115;44.484;11.314;2023-03-01T13:13:20;15.38;;;11.30;;
60257;SDS011;46115;44.484;11.314;2023-03-01T13:17:31;16.67;;;11.57;;
60257;SDS011;46115;44.484;11.314;2023-03-01T13:21:41;16.58;;;11.43;;
60257;SDS011;46115;44.484;11.314;2023-03-01T13:26:05;18.17;;;12.43;;
60257;SDS011;46115;44.484;11.314;2023-03-01T13:34:44;14.02;;;10.80;;
60257;SDS011;46115;44.484;11.314;2023-03-01T13:38:54;14.05;;;10.35;;
60257;SDS011;46115;44.484;11.314;2023-03-01T13:43:00;17.10;;;12.15;;
60257;SDS011;46115;44.484;11.314;2023-03-01T13:47:30;16.77;;;12.30;;
60257;SDS011;46115;44.484;11.314;2023-03-01T13:51:36;17.20;;;12.43;;
60257;SDS011;46115;44.484;11.314;2023-03-01T13:55:40;17.95;;;13.13;;
60257;SDS011;46115;44.484;11.314;2023-03-01T13:59:47;20.88;;;14.02;;
60257;SDS011;46115;44.484;11.314;2023-03-01T14:03:50;18.17;;;12.27;;
60257;SDS011;46115;44.484;11.314;2023-03-01T14:12:01;16.95;;;12.30;;
60257;SDS011;46115;44.484;11.314;2023-03-01T14:16:22;18.42;;;13.60;;
60257;SDS011;46115;44.484;11.314;2023-03-01T14:20:33;16.70;;;12.30;;
60257;SDS011;46115;44.484;11.314;2023-03-01T14:24:44;17.35;;;13.13;;
60257;SDS011;46115;44.484;11.314;2023-03-01T14:28:49;15.68;;;11.75;;
60257;SDS011;46115;44.484;11.314;2023-03-01T14:32:55;14.75;;;11.57;;
60257;SDS011;46115;44.484;11.314;2023-03-01T14:37:09;14.77;;;11.50;;
60257;SDS011;46115;44.484;11.314;2023-03-01T14:41:14;16.45;;;11.98;;
60257;SDS011;46115;44.484;11.314;2023-03-01T14:45:19;15.10;;;11.63;;
60257;SDS011;46115;44.484;11.314;2023-03-01T14:49:24;15.65;;;12.02;;
60257;SDS011;46115;44.484;11.314;2023-03-01T14:53:29;17.25;;;12.35;;
60257;SDS011;46115;44.484;11.314;2023-03-01T14:57:31;15.93;;;11.30;;
60257;SDS011;46115;44.484;11.314;2023-03-01T15:01:34;16.33;;;11.25;;
60257;SDS011;46115;44.484;11.314;2023-03-01T15:05:37;15.30;;;11.35;;
60257;SDS011;46115;44.484;11.314;2023-03-01T15:09:41;16.20;;;11.70;;
60257;SDS011;46115;44.484;11.314;2023-03-01T15:13:44;14.50;;;11.30;;
60257;SDS011;46115;44.484;11.314;2023-03-01T15:17:51;16.50;;;12.55;;
60257;SDS011;46115;44.484;11.314;2023-03-01T15:21:58;16.70;;;12.75;;
60257;SDS011;46115;44.484;11.314;2023-03-01T15:26:00;17.77;;;13.75;;
60257;SDS011;46115;44.484;11.314;2023-03-01T15:30:04;17.30;;;12.63;;
60257;SDS011;46115;44.484;11.314;2023-03-01T15:34:09;17.70;;;12.55;;
60257;SDS011;46115;44.484;11.314;2023-03-01T15:38:31;17.40;;;13.10;;
60257;SDS011;46115;44.484;11.314;2023-03-01T15:42:36;17.92;;;12.55;;
60257;SDS011;46115;44.484;11.314;2023-03-01T15:46:39;15.60;;;11.50;;
60257;SDS011;46115;44.484;11.314;2023-03-01T15:50:41;15.55;;;11.90;;
60257;SDS011;46115;44.484;11.314;2023-03-01T15:54:46;15.02;;;12.05;;
60257;SDS011;46115;44.484;11.314;2023-03-01T15:58:49;15.07;;;12.10;;
60257;SDS011;46115;44.484;11.314;2023-03-01T16:06:53;15.33;;;11.60;;
60257;SDS011;46115;44.484;11.314;2023-03-01T16:10:57;14.20;;;11.55;;
60257;SDS011;46115;44.484;11.314;2023-03-01T16:14:59;14.98;;;11.77;;
60257;SDS011;46115;44.484;11.314;2023-03-01T16:19:01;16.15;;;11.93;;
60257;SDS011;46115;44.484;11.314;2023-03-01T16:23:04;16.98;;;12.77;;
60257;SDS011;46115;44.484;11.314;2023-03-01T16:27:09;13.80;;;10.85;;
60257;SDS011;46115;44.484;11.314;2023-03-01T16:31:12;12.48;;;10.38;;
60257;SDS011;46115;44.484;11.314;2023-03-01T16:35:19;15.20;;;11.15;;
60257;SDS011;46115;44.484;11.314;2023-03-01T16:39:22;14.20;;;11.25;;
60257;SDS011;46115;44.484;11.314;2023-03-01T16:47:28;13.65;;;10.88;;
60257;SDS011;46115;44.484;11.314;2023-03-01T16:51:31;14.40;;;11.18;;
60257;SDS011;46115;44.484;11.314;2023-03-01T16:55:35;13.23;;;10.63;;
60257;SDS011;46115;44.484;11.314;2023-03-01T16:59:40;14.85;;;11.50;;
60257;SDS011;46115;44.484;11.314;2023-03-01T17:03:42;13.30;;;10.98;;
60257;SDS011;46115;44.484;11.314;2023-03-01T17:07:46;12.65;;;10.50;;
60257;SDS011;46115;44.484;11.314;2023-03-01T17:11:49;13.57;;;10.90;;
60257;SDS011;46115;44.484;11.314;2023-03-01T17:15:52;12.80;;;10.05;;
60257;SDS011;46115;44.484;11.314;2023-03-01T17:19:55;12.98;;;10.40;;
60257;SDS011;46115;44.484;11.314;2023-03-01T17:23:57;13.45;;;10.45;;
60257;SDS011;46115;44.484;11.314;2023-03-01T17:28:00;13.07;;;10.95;;
60257;SDS011;46115;44.484;11.314;2023-03-01T23:06:09;19.05;;;11.52;;
60257;SDS011;46115;44.484;11.314;2023-03-01T23:10:13;16.88;;;13.18;;
60257;SDS011;46115;44.484;11.314;2023-03-01T23:14:16;19.60;;;13.32;;
60257;SDS011;46115;44.484;11.314;2023-03-01T23:18:19;18.38;;;14.07;;
60257;SDS011;46115;44.484;11.314;2023-03-01T23:22:22;17.08;;;13.75;;
60257;SDS011;46115;44.484;11.314;2023-03-01T23:26:25;17.10;;;12.63;;
60257;SDS011;46115;44.484;11.314;2023-03-01T23:30:29;17.20;;;12.32;;
60257;SDS011;46115;44.484;11.314;2023-03-01T23:34:31;22.80;;;13.18;;
60257;SDS011;46115;44.484;11.314;2023-03-01T23:38:35;17.83;;;12.98;;
60257;SDS011;46115;44.484;11.314;2023-03-01T23:42:37;14.98;;;12.35;;
60257;SDS011;46115;44.484;11.314;2023-03-01T23:54:45;16.88;;;11.82;;
60257;SDS011;46115;44.484;11.314;2023-03-01T23:58:48;15.20;;;11.38;;
